Time;durP1;ratioP1;P1;durP2;ratioP2;P2;SDS_P1;SDS_P2;PMS_P1;PMS_P2;Temp;Humidity;BMP_temperature;BMP_pressure;BME280_temperature;BME280_humidity;BME280_pressure;Samples;Min_cycle;Max_cycle;Signal;HPM_P1;HPM_P2
2021/08/30 00:02:07;;;;;;;8.40;6.43;;;;;;;21.73;67.04;99433.00;4969380;28;20529;-24
2021/08/30 00:04:32;;;;;;;9.88;7.00;;;;;;;21.77;67.16;99428.56;4969473;28;20035;-24
2021/08/30 00:06:59;;;;;;;7.63;5.88;;;;;;;21.67;67.26;99432.31;4969272;28;20038;-24
2021/08/30 00:09:25;;;;;;;9.13;6.63;;;;;;;21.70;67.34;99432.81;4969003;28;20042;-24
2021/08/30 00:11:51;;;;;;;9.35;6.20;;;;;;;21.82;66.46;99436.59;4969138;28;20042;-24
2021/08/30 00:14:16;;;;;;;9.70;6.55;;;;;;;21.74;66.41;99436.50;4969015;28;20035;-24
2021/08/30 00:16:42;;;;;;;12.10;7.55;;;;;;;21.28;67.37;99422.06;4969002;28;20034;-24
2021/08/30 00:19:07;;;;;;;11.13;8.20;;;;;;;21.21;68.71;99438.78;4969123;28;20058;-24
2021/08/30 00:21:33;;;;;;;12.82;7.53;;;;;;;21.19;68.60;99429.34;4969136;28;20396;-24
2021/08/30 00:23:58;;;;;;;11.80;7.45;;;;;;;21.05;69.24;99445.63;4968909;28;20027;-24
2021/08/30 00:26:24;;;;;;;10.65;7.97;;;;;;;21.02;69.89;99444.34;4968393;28;20054;-23
2021/08/30 00:28:49;;;;;;;11.63;7.32;;;;;;;20.86;70.25;99433.00;4969054;28;20023;-24
2021/08/30 00:31:15;;;;;;;12.13;8.32;;;;;;;20.69;71.43;99442.84;4969658;28;20039;-24
2021/08/30 00:33:40;;;;;;;10.20;7.53;;;;;;;20.71;71.62;99430.59;4969279;28;20978;-24
2021/08/30 00:36:05;;;;;;;13.02;7.72;;;;;;;20.59;72.10;99443.84;4972590;28;20031;-24
2021/08/30 00:38:31;;;;;;;10.57;7.88;;;;;;;20.43;73.01;99440.59;4971499;28;20053;-24
2021/08/30 00:40:56;;;;;;;12.43;7.90;;;;;;;20.06;74.58;99437.75;4972768;28;20034;-24
2021/08/30 00:43:22;;;;;;;11.60;8.52;;;;;;;19.73;76.33;99439.63;4972820;28;20414;-24
2021/08/30 00:45:47;;;;;;;14.50;8.35;;;;;;;19.94;75.69;99428.47;4972545;28;20089;-24
2021/08/30 00:48:13;;;;;;;13.38;8.25;;;;;;;20.01;75.38;99435.09;4972225;28;20031;-24
2021/08/30 00:50:38;;;;;;;14.88;9.38;;;;;;;20.06;74.80;99432.31;4972668;28;20422;-24
2021/08/30 00:53:05;;;;;;;13.90;8.98;;;;;;;20.38;74.00;99438.78;4972427;28;20031;-24
2021/08/30 00:55:31;;;;;;;10.98;9.02;;;;;;;20.58;72.94;99447.63;4955115;28;20479;-24
2021/08/30 00:57:58;;;;;;;13.90;9.05;;;;;;;20.78;72.19;99447.28;4939336;28;20037;-24
2021/08/30 01:00:23;;;;;;;13.70;9.13;;;;;;;20.73;72.14;99449.28;4972104;28;20419;-24
2021/08/30 01:02:49;;;;;;;12.38;8.93;;;;;;;20.48;72.60;99444.00;4972324;28;20487;-24
2021/08/30 01:05:15;;;;;;;11.48;8.10;;;;;;;20.37;73.06;99453.44;4972339;28;20034;-24
2021/08/30 01:08:08;;;;;;;14.00;9.75;;;;;;;20.40;73.16;99452.81;4972106;28;20033;-24
2021/08/30 01:10:44;;;;;;;10.27;8.23;;;;;;;20.11;74.12;99455.78;4972175;28;20042;-24
2021/08/30 01:13:13;;;;;;;10.85;7.72;;;;;;;20.14;74.04;99448.97;4970728;28;20038;-24
2021/08/30 01:15:43;;;;;;;12.23;8.02;;;;;;;19.98;74.44;99457.38;4954929;28;20034;-24
2021/08/30 01:18:10;;;;;;;11.43;7.90;;;;;;;20.01;74.04;99451.34;4970939;28;20289;-24
2021/08/30 01:20:56;;;;;;;10.80;7.93;;;;;;;20.09;73.55;99440.94;4972448;28;20034;-24
2021/08/30 01:23:22;;;;;;;12.40;8.05;;;;;;;20.33;72.42;99436.19;4970840;28;20049;-24
2021/08/30 01:25:47;;;;;;;11.10;8.20;;;;;;;20.56;71.78;99461.47;4970738;28;20073;-25
2021/08/30 01:28:13;;;;;;;11.60;7.75;;;;;;;20.60;71.35;99443.56;4954183;28;20507;-24
2021/08/30 01:30:39;;;;;;;11.63;8.00;;;;;;;20.70;71.36;99455.28;4970841;28;20035;-24
2021/08/30 01:33:05;;;;;;;11.32;7.28;;;;;;;20.60;70.99;99427.28;4970799;28;20038;-24
2021/08/30 01:35:31;;;;;;;10.50;7.82;;;;;;;21.11;69.26;99455.25;4954399;28;20026;-24
2021/08/30 01:37:58;;;;;;;12.85;7.80;;;;;;;20.96;69.40;99463.69;4971774;28;20466;-24
2021/08/30 01:40:27;;;;;;;13.30;9.00;;;;;;;20.66;70.75;99466.72;4954212;28;20023;-24
2021/08/30 01:42:53;;;;;;;12.30;7.80;;;;;;;20.57;70.16;99451.44;4971604;28;20043;-24
2021/08/30 01:45:20;;;;;;;13.00;8.05;;;;;;;20.28;71.36;99452.50;4970722;28;20035;-24
2021/08/30 01:47:46;;;;;;;11.32;7.30;;;;;;;20.15;72.09;99453.31;4954185;28;20107;-24
2021/08/30 01:50:14;;;;;;;12.77;8.18;;;;;;;20.15;72.12;99456.81;4970127;28;20051;-24
2021/08/30 01:52:40;;;;;;;9.57;7.13;;;;;;;20.31;71.83;99457.34;4970038;28;20034;-24
2021/08/30 01:55:57;;;;;;;11.35;7.75;;;;;;;20.36;71.08;99465.34;4970010;28;20037;-24
2021/08/30 02:03:08;;;;;;;17.08;9.23;;;;;;;20.40;71.40;99463.66;4956854;28;20509;-24
2021/08/30 02:05:33;;;;;;;9.77;7.47;;;;;;;20.37;71.39;99464.28;4971215;28;20030;-24
2021/08/30 02:07:58;;;;;;;11.45;8.68;;;;;;;20.45;71.02;99466.28;4970995;28;20398;-25
2021/08/30 02:10:24;;;;;;;10.82;8.00;;;;;;;20.69;70.23;99470.72;4971088;28;20031;-24
2021/08/30 02:12:49;;;;;;;10.68;7.70;;;;;;;20.45;71.06;99487.94;4970939;28;20038;-24
2021/08/30 02:15:15;;;;;;;12.57;7.88;;;;;;;20.23;71.65;99487.81;4971078;28;20041;-24
2021/08/30 02:17:40;;;;;;;12.48;7.80;;;;;;;20.40;71.26;99485.31;4970731;28;20143;-24
2021/08/30 02:20:08;;;;;;;14.48;8.35;;;;;;;20.49;71.03;99493.56;4953746;28;20035;-24
2021/08/30 02:22:35;;;;;;;13.10;8.05;;;;;;;20.77;70.07;99499.03;4954136;28;20049;-24
2021/08/30 02:25:04;;;;;;;13.73;8.60;;;;;;;20.74;69.42;99495.03;4969790;28;20038;-25
2021/08/30 02:28:00;;;;;;;11.88;8.30;;;;;;;20.21;71.41;99490.00;4970680;28;20097;-24
2021/08/30 02:30:31;;;;;;;13.00;8.23;;;;;;;19.92;71.17;99485.59;4969272;28;20038;-24
2021/08/30 02:32:59;;;;;;;12.55;8.90;;;;;;;19.82;71.77;99496.59;4970693;28;20031;-24
2021/08/30 02:35:26;;;;;;;;;;;;;;;19.44;72.39;99493.84;4969552;28;20486;-24
2021/08/30 02:37:51;;;;;;;13.63;9.13;;;;;;;19.63;72.06;99491.16;4970743;28;20008;-24
2021/08/30 02:40:17;;;;;;;16.48;11.05;;;;;;;19.72;71.66;99491.34;4953066;28;20030;-23
2021/08/30 02:42:43;;;;;;;21.08;12.40;;;;;;;19.58;71.54;99502.84;4953127;28;20046;-24
2021/08/30 02:45:10;;;;;;;12.00;9.15;;;;;;;19.48;71.67;99501.09;4968974;28;20045;-24
2021/08/30 02:47:35;;;;;;;15.00;9.30;;;;;;;19.65;71.41;99476.22;4970201;28;20034;-24
2021/08/30 02:50:02;;;;;;;12.48;8.98;;;;;;;19.80;70.38;99504.19;4952694;28;20038;-24
2021/08/30 02:52:27;;;;;;;13.93;8.90;;;;;;;19.82;70.80;99508.22;4957746;28;20046;-23
2021/08/30 02:54:53;;;;;;;12.20;8.30;;;;;;;19.92;69.91;99493.72;4953002;28;20033;-24
2021/08/30 02:57:18;;;;;;;13.90;8.43;;;;;;;19.93;69.21;99502.63;4970001;28;20050;-24
2021/08/30 02:59:44;;;;;;;11.57;8.80;;;;;;;19.89;69.68;99507.03;4968840;28;20031;-24
2021/08/30 03:02:09;;;;;;;12.63;9.50;;;;;;;19.84;70.05;99505.22;4952671;28;20128;-24
2021/08/30 03:04:35;;;;;;;11.82;8.10;;;;;;;19.59;70.33;99514.47;4968830;28;20038;-24
2021/08/30 03:07:00;;;;;;;15.10;8.85;;;;;;;19.42;70.94;99517.69;4969001;28;20062;-24
2021/08/30 03:09:26;;;;;;;14.60;9.23;;;;;;;19.16;71.37;99526.09;4968974;28;20031;-24
2021/08/30 03:11:52;;;;;;;12.38;8.90;;;;;;;19.21;71.19;99526.06;4968896;28;20054;-24
2021/08/30 03:14:19;;;;;;;14.63;9.48;;;;;;;19.39;70.44;99526.34;4952507;28;20125;-24
2021/08/30 03:16:45;;;;;;;12.15;8.07;;;;;;;19.07;71.04;99514.31;4969919;28;20057;-24
2021/08/30 03:19:12;;;;;;;13.52;8.30;;;;;;;19.42;70.38;99525.78;4969658;28;20790;-24
2021/08/30 03:21:37;;;;;;;10.10;7.60;;;;;;;19.68;69.60;99524.34;4968520;28;20030;-24
2021/08/30 03:24:03;;;;;;;11.50;8.43;;;;;;;19.72;68.94;99529.22;4952366;28;20050;-24
2021/08/30 03:26:29;;;;;;;11.38;8.52;;;;;;;19.65;69.29;99527.63;4967973;28;20059;-24
2021/08/30 03:28:54;;;;;;;12.60;8.50;;;;;;;19.79;68.74;99535.03;4952547;28;20034;-24
2021/08/30 03:31:20;;;;;;;12.88;8.95;;;;;;;19.68;68.44;99535.16;4968053;28;20031;-24
2021/08/30 03:33:45;;;;;;;12.15;8.65;;;;;;;19.56;68.63;99510.44;4968362;28;20038;-24
2021/08/30 03:36:11;;;;;;;14.60;8.88;;;;;;;19.72;67.82;99537.31;4952050;28;20030;-24
2021/08/30 03:38:37;;;;;;;15.85;9.93;;;;;;;19.74;67.65;99535.13;4968334;28;20027;-23
2021/08/30 03:41:02;;;;;;;14.27;9.35;;;;;;;19.70;67.81;99551.09;4951761;28;20049;-24
2021/08/30 03:43:28;;;;;;;12.35;8.43;;;;;;;19.64;67.47;99542.25;4967833;28;20403;-24
2021/08/30 03:45:53;;;;;;;12.60;8.77;;;;;;;19.85;67.72;99571.75;4968479;28;20042;-24
2021/08/30 03:48:19;;;;;;;12.02;9.10;;;;;;;19.60;68.13;99554.75;4966216;28;20031;-24
2021/08/30 03:50:45;;;;;;;14.95;8.88;;;;;;;19.71;67.79;99562.75;4952508;28;20034;-29
2021/08/30 03:53:10;;;;;;;11.63;8.57;;;;;;;19.50;68.22;99552.19;4968129;28;20042;-24
2021/08/30 03:55:36;;;;;;;12.70;9.48;;;;;;;19.41;68.63;99572.84;4952069;28;20070;-23
2021/08/30 03:58:01;;;;;;;11.95;7.95;;;;;;;19.57;67.80;99555.31;4951869;28;20037;-24
2021/08/30 04:00:27;;;;;;;12.38;8.55;;;;;;;19.47;67.94;99566.28;4969201;28;20043;-24
2021/08/30 04:02:53;;;;;;;14.93;8.77;;;;;;;19.65;67.97;99575.50;4951822;28;20130;-24
2021/08/30 04:05:21;;;;;;;11.40;8.32;;;;;;;19.41;67.18;99556.59;4967866;28;20038;-24
2021/08/30 04:07:47;;;;;;;11.65;7.65;;;;;;;19.62;67.52;99574.19;4952210;28;20037;-24
2021/08/30 04:10:13;;;;;;;10.40;7.57;;;;;;;19.65;66.56;99576.31;4968195;28;20072;-24
2021/08/30 04:12:38;;;;;;;10.15;7.95;;;;;;;19.19;67.60;99574.19;4951840;28;20031;-24
2021/08/30 04:15:04;;;;;;;13.75;8.20;;;;;;;19.25;68.13;99573.03;4951827;28;20031;-24
2021/08/30 04:17:29;;;;;;;12.32;7.72;;;;;;;19.21;67.13;99580.13;4951856;28;20109;-24
2021/08/30 04:19:55;;;;;;;12.57;8.32;;;;;;;19.43;67.42;99586.88;4968998;28;20486;-24
2021/08/30 04:22:20;;;;;;;10.43;7.65;;;;;;;19.33;66.58;99592.41;4968800;28;20105;-24
2021/08/30 04:24:46;;;;;;;10.95;7.30;;;;;;;19.04;67.34;99582.44;4968535;28;20066;-24
2021/08/30 04:27:12;;;;;;;10.80;7.03;;;;;;;19.19;67.39;99595.81;4968761;28;20503;-24
2021/08/30 04:29:38;;;;;;;11.63;7.50;;;;;;;19.02;67.48;99598.97;4968866;28;20038;-24
2021/08/30 04:32:04;;;;;;;11.00;7.38;;;;;;;18.86;68.13;99598.31;4967523;28;20038;-24
2021/08/30 04:34:30;;;;;;;10.38;7.38;;;;;;;18.94;67.63;99605.00;4969497;28;20815;-23
2021/08/30 04:36:55;;;;;;;11.18;7.07;;;;;;;19.04;67.47;99604.91;4969042;28;20031;-24
2021/08/30 04:39:21;;;;;;;9.73;6.47;;;;;;;19.08;66.59;99597.00;4968865;28;20058;-24
2021/08/30 04:41:46;;;;;;;10.10;6.97;;;;;;;18.86;68.06;99603.72;4968777;28;20041;-23
2021/08/30 04:44:12;;;;;;;12.50;8.10;;;;;;;18.98;67.25;99605.22;4967357;28;20031;-24
2021/08/30 04:46:37;;;;;;;8.98;6.18;;;;;;;18.99;66.98;99631.16;4968777;28;20030;-24
2021/08/30 04:49:03;;;;;;;9.77;6.88;;;;;;;19.14;67.00;99620.19;4968779;28;20483;-24
2021/08/30 04:51:28;;;;;;;11.57;7.78;;;;;;;19.19;67.05;99622.03;4968689;28;20042;-24
2021/08/30 04:53:54;;;;;;;9.75;7.20;;;;;;;19.19;66.56;99625.53;4968597;28;20558;-23
2021/08/30 04:56:19;;;;;;;8.82;6.65;;;;;;;19.10;66.10;99600.22;4968766;28;20042;-24
2021/08/30 04:58:45;;;;;;;11.57;7.75;;;;;;;19.24;66.05;99628.19;4968588;28;20035;-24
2021/08/30 05:01:10;;;;;;;10.80;6.68;;;;;;;19.37;65.74;99624.00;4968552;28;20030;-24
2021/08/30 05:03:36;;;;;;;8.70;6.38;;;;;;;19.25;65.93;99621.69;4968573;28;20031;-24
2021/08/30 05:06:02;;;;;;;10.05;7.03;;;;;;;18.96;66.51;99627.13;4968280;28;20085;-25
2021/08/30 05:08:27;;;;;;;12.45;7.47;;;;;;;19.02;66.91;99615.19;4967521;28;20069;-23
2021/08/30 05:10:53;;;;;;;9.65;6.90;;;;;;;18.87;66.59;99608.03;4968785;28;20054;-24
2021/08/30 05:13:18;;;;;;;8.80;6.47;;;;;;;18.91;66.75;99619.06;4968422;28;20402;-24
2021/08/30 05:15:44;;;;;;;9.93;7.45;;;;;;;19.07;66.16;99617.03;4968438;28;20089;-24
2021/08/30 05:18:09;;;;;;;9.90;7.20;;;;;;;19.10;65.95;99621.84;4968259;28;20023;-24
2021/08/30 05:20:35;;;;;;;9.52;6.72;;;;;;;19.06;65.48;99626.22;4968503;28;20514;-23
2021/08/30 05:23:00;;;;;;;10.88;7.18;;;;;;;18.89;66.20;99618.53;4971752;28;20030;-24
2021/08/30 05:25:26;;;;;;;9.93;7.28;;;;;;;19.17;65.38;99633.13;4971834;28;20074;-24
2021/08/30 05:27:51;;;;;;;12.07;7.07;;;;;;;19.40;64.85;99630.72;4971660;28;20059;-24
2021/08/30 05:30:18;;;;;;;10.25;6.90;;;;;;;19.55;64.49;99630.53;4971551;28;20038;-24
2021/08/30 05:32:44;;;;;;;9.90;7.10;;;;;;;19.40;64.26;99628.81;4971653;28;20042;-24
2021/08/30 05:35:09;;;;;;;10.98;6.70;;;;;;;19.39;64.24;99624.53;4971775;28;20031;-24
2021/08/30 05:37:35;;;;;;;8.88;6.55;;;;;;;19.71;64.06;99652.03;4971537;28;20046;-24
2021/08/30 05:40:00;;;;;;;9.60;6.57;;;;;;;19.79;63.46;99652.19;4971250;28;20041;-24
2021/08/30 05:42:26;;;;;;;9.02;6.63;;;;;;;19.85;63.46;99648.31;4970534;28;20410;-24
2021/08/30 05:44:51;;;;;;;9.75;6.53;;;;;;;19.82;63.24;99653.53;4971720;28;20035;-24
2021/08/30 05:47:17;;;;;;;11.43;7.00;;;;;;;19.81;62.97;99647.28;4971703;28;20030;-24
2021/08/30 05:49:42;;;;;;;9.88;6.40;;;;;;;20.05;62.69;99641.81;4971617;28;20055;-24
2021/08/30 05:52:08;;;;;;;9.70;6.25;;;;;;;19.86;62.65;99636.41;4971251;28;20030;-24
2021/08/30 05:54:33;;;;;;;11.68;6.38;;;;;;;19.96;62.80;99632.78;4971266;28;20038;-24
2021/08/30 05:56:59;;;;;;;11.23;6.90;;;;;;;20.06;62.32;99639.91;4971331;28;20034;-24
2021/08/30 05:59:24;;;;;;;9.52;6.95;;;;;;;20.03;62.38;99645.94;4971184;28;20073;-23
2021/08/30 06:01:49;;;;;;;9.93;6.72;;;;;;;20.13;62.82;99642.28;4971370;28;20030;-23
2021/08/30 06:04:15;;;;;;;10.60;6.72;;;;;;;20.36;62.23;99630.53;4970894;28;20046;-24
2021/08/30 06:06:40;;;;;;;11.82;7.22;;;;;;;20.57;60.93;99643.75;4971086;28;20062;-24
2021/08/30 06:09:06;;;;;;;8.55;6.38;;;;;;;20.52;61.02;99628.41;4971145;28;20038;-24
2021/08/30 06:11:31;;;;;;;12.73;7.18;;;;;;;20.67;60.87;99630.09;4970990;28;20034;-24
2021/08/30 06:13:57;;;;;;;9.00;6.20;;;;;;;20.91;60.64;99650.84;4970950;28;20046;-24
2021/08/30 06:16:22;;;;;;;11.57;7.00;;;;;;;20.83;60.76;99644.19;4970785;28;20035;-24
2021/08/30 06:18:48;;;;;;;9.98;6.72;;;;;;;20.85;60.51;99641.97;4971204;28;20031;-24
2021/08/30 06:21:13;;;;;;;9.85;6.90;;;;;;;20.97;59.99;99644.22;4970920;28;20046;-24
2021/08/30 06:23:38;;;;;;;11.18;6.55;;;;;;;20.89;59.09;99625.94;4970599;28;20434;-24
2021/08/30 06:26:04;;;;;;;10.80;6.07;;;;;;;21.14;58.83;99660.69;4970423;28;20050;-24
2021/08/30 06:28:29;;;;;;;10.90;6.70;;;;;;;21.03;59.03;99659.28;4970641;28;20030;-23
2021/08/30 06:30:55;;;;;;;9.55;6.35;;;;;;;20.92;59.40;99660.56;4970573;28;20038;-24
2021/08/30 06:33:21;;;;;;;9.95;6.30;;;;;;;21.22;58.83;99660.00;4970215;28;20062;-24
2021/08/30 06:35:46;;;;;;;8.75;6.15;;;;;;;21.39;57.66;99661.31;4970571;28;20513;-23
2021/08/30 06:38:12;;;;;;;8.68;6.35;;;;;;;21.32;57.85;99660.94;4970194;28;20027;-25
2021/08/30 06:40:38;;;;;;;12.40;5.93;;;;;;;21.28;58.59;99664.22;4970420;28;20031;-23
2021/08/30 06:43:03;;;;;;;8.70;6.38;;;;;;;21.41;57.70;99657.22;4970254;28;20112;-24
2021/08/30 06:45:29;;;;;;;9.23;5.97;;;;;;;21.48;58.12;99661.47;4970506;28;20027;-24
2021/08/30 06:47:55;;;;;;;8.55;6.07;;;;;;;21.32;57.37;99639.25;4970319;28;20110;-24
2021/08/30 06:50:20;;;;;;;7.65;5.45;;;;;;;21.01;57.05;99647.94;4968423;28;20031;-25
2021/08/30 06:52:46;;;;;;;8.85;5.50;;;;;;;21.17;57.74;99664.75;4970617;28;20092;-24
2021/08/30 06:55:11;;;;;;;8.80;5.47;;;;;;;21.48;57.19;99659.56;4970590;28;20323;-24
2021/08/30 06:57:37;;;;;;;8.85;5.35;;;;;;;21.59;56.55;99671.00;4970113;28;20031;-24
2021/08/30 07:00:04;;;;;;;7.70;5.00;;;;;;;21.47;56.89;99652.53;4970134;28;20407;-24
2021/08/30 07:02:29;;;;;;;7.73;5.43;;;;;;;21.39;57.44;99666.75;4970148;28;20503;-24
2021/08/30 07:04:54;;;;;;;10.52;5.45;;;;;;;21.69;56.88;99675.44;4970050;28;20031;-24
2021/08/30 07:07:20;;;;;;;7.57;4.68;;;;;;;21.86;56.08;99681.03;4969824;28;20398;-24
2021/08/30 07:09:45;;;;;;;8.18;5.10;;;;;;;21.27;56.85;99669.97;4969709;28;20039;-24
2021/08/30 07:12:11;;;;;;;9.93;6.03;;;;;;;21.58;57.33;99672.94;4969606;28;20035;-24
2021/08/30 07:14:36;;;;;;;11.82;5.70;;;;;;;21.25;56.44;99681.13;4969843;28;20030;-23
2021/08/30 07:17:02;;;;;;;8.57;5.72;;;;;;;21.08;56.88;99672.75;4969823;28;20078;-23
2021/08/30 07:19:27;;;;;;;8.52;5.60;;;;;;;21.18;58.03;99685.31;4969802;28;20029;-24
2021/08/30 07:21:53;;;;;;;8.55;5.63;;;;;;;21.11;57.49;99671.38;4969544;28;20490;-24
2021/08/30 07:24:18;;;;;;;8.35;5.15;;;;;;;21.45;57.23;99687.28;4969288;28;20093;-23
2021/08/30 07:26:44;;;;;;;8.05;5.28;;;;;;;21.41;57.16;99686.25;4969173;28;20082;-24
2021/08/30 07:29:09;;;;;;;8.23;5.90;;;;;;;22.03;56.29;99686.66;4969945;28;20035;-24
2021/08/30 07:31:35;;;;;;;7.13;4.80;;;;;;;22.32;55.71;99685.53;4969841;28;20109;-24
2021/08/30 07:34:00;;;;;;;8.85;4.75;;;;;;;22.02;55.24;99678.81;4968981;28;20035;-24
2021/08/30 07:36:26;;;;;;;7.55;5.20;;;;;;;22.26;55.59;99684.81;4969178;28;20023;-24
2021/08/30 07:38:51;;;;;;;7.10;4.57;;;;;;;22.70;54.19;99685.19;4969297;28;20031;-24
2021/08/30 07:41:17;;;;;;;7.60;4.97;;;;;;;22.56;54.24;99681.72;4969240;28;20038;-25
2021/08/30 07:43:42;;;;;;;7.63;5.05;;;;;;;22.50;54.67;99669.38;4968408;28;20087;-24
2021/08/30 07:46:08;;;;;;;8.43;4.82;;;;;;;23.04;52.53;99664.78;4969035;28;20479;-24
2021/08/30 07:48:33;;;;;;;9.80;4.55;;;;;;;23.54;52.44;99689.03;4969257;28;20031;-24
2021/08/30 07:50:59;;;;;;;6.45;4.72;;;;;;;23.44;52.42;99672.97;4969310;28;20039;-24
2021/08/30 07:53:27;;;;;;;6.85;4.55;;;;;;;22.95;53.35;99682.94;4969153;28;20038;-24
2021/08/30 07:55:53;;;;;;;7.82;4.68;;;;;;;23.54;52.94;99680.03;4969046;28;20030;-24
2021/08/30 07:58:19;;;;;;;6.50;4.60;;;;;;;23.25;51.67;99690.34;4968767;28;20034;-24
2021/08/30 08:00:44;;;;;;;6.65;4.63;;;;;;;22.89;53.13;99673.31;4969222;28;20513;-24
2021/08/30 08:03:10;;;;;;;6.90;4.50;;;;;;;22.85;53.29;99679.34;4969122;28;20037;-24
2021/08/30 08:05:35;;;;;;;6.40;4.43;;;;;;;23.20;52.62;99679.56;4969049;28;20120;-24
2021/08/30 08:08:04;;;;;;;7.85;5.13;;;;;;;23.10;53.34;99685.28;4968870;28;20030;-24
2021/08/30 08:10:29;;;;;;;7.10;4.55;;;;;;;23.19;53.27;99678.00;4968859;28;20561;-24
2021/08/30 08:12:55;;;;;;;7.32;4.57;;;;;;;23.45;52.41;99675.34;4969078;28;20038;-24
2021/08/30 08:15:20;;;;;;;6.80;4.80;;;;;;;23.79;52.31;99689.44;4968313;28;20066;-24
2021/08/30 08:17:46;;;;;;;8.13;4.20;;;;;;;23.65;51.37;99668.56;4969025;28;20502;-24
2021/08/30 08:20:12;;;;;;;6.35;4.20;;;;;;;23.61;51.53;99666.78;4968828;28;20043;-24
2021/08/30 08:22:37;;;;;;;9.15;4.90;;;;;;;23.94;51.11;99682.75;4968729;28;20027;-24
2021/08/30 08:25:04;;;;;;;6.43;4.40;;;;;;;23.97;51.01;99677.47;4968753;28;20043;-24
2021/08/30 08:27:30;;;;;;;7.15;4.53;;;;;;;24.03;50.73;99673.47;4968393;28;20062;-24
2021/08/30 08:29:56;;;;;;;6.80;4.20;;;;;;;24.38;51.12;99676.22;4969008;28;20027;-23
2021/08/30 08:32:21;;;;;;;6.60;4.18;;;;;;;24.99;47.65;99675.38;4968491;28;20042;-24
2021/08/30 08:34:47;;;;;;;6.97;4.35;;;;;;;24.99;49.38;99680.84;4968672;28;20027;-24
2021/08/30 08:37:12;;;;;;;6.72;4.20;;;;;;;25.20;48.12;99692.66;4968816;28;20034;-24
2021/08/30 08:39:38;;;;;;;7.03;4.43;;;;;;;25.63;47.69;99688.19;4968966;28;20046;-24
2021/08/30 08:42:04;;;;;;;6.95;4.40;;;;;;;25.51;47.54;99674.41;4968673;28;20039;-24
2021/08/30 08:44:29;;;;;;;6.20;3.95;;;;;;;24.91;47.95;99670.72;4968717;28;20034;-24
2021/08/30 08:46:55;;;;;;;7.28;3.92;;;;;;;25.64;47.76;99690.59;4967527;28;20042;-24
2021/08/30 08:49:21;;;;;;;6.28;4.05;;;;;;;25.64;47.66;99663.28;4968658;28;20035;-24
2021/08/30 08:51:46;;;;;;;7.88;4.10;;;;;;;25.75;47.05;99673.81;4968663;28;20045;-24
2021/08/30 08:54:13;;;;;;;6.63;4.45;;;;;;;25.64;47.83;99670.66;4968634;28;20705;-24
2021/08/30 08:56:38;;;;;;;6.05;4.30;;;;;;;25.42;47.72;99672.53;4971976;28;20081;-24
2021/08/30 08:59:04;;;;;;;7.35;4.00;;;;;;;25.36;48.41;99678.50;4972353;28;20030;-24
2021/08/30 09:01:30;;;;;;;7.80;4.63;;;;;;;25.55;47.91;99670.69;4971009;28;20046;-24
2021/08/30 09:03:56;;;;;;;8.40;4.90;;;;;;;25.84;47.09;99675.34;4972135;28;20556;-24
2021/08/30 09:06:30;;;;;;;6.65;4.38;;;;;;;26.12;46.95;99654.97;4971795;28;20043;-24
2021/08/30 09:09:21;;;;;;;7.03;4.13;;;;;;;26.37;45.77;99678.53;4972164;28;20411;-29
2021/08/30 09:11:52;;;;;;;6.82;4.18;;;;;;;26.01;46.08;99685.41;4970982;28;20491;-24
2021/08/30 09:14:19;;;;;;;9.48;4.50;;;;;;;26.31;46.47;99682.59;4971572;28;20027;-24
2021/08/30 09:16:46;;;;;;;7.88;4.35;;;;;;;26.84;45.49;99675.56;4971913;28;20066;-24
2021/08/30 09:19:13;;;;;;;8.13;4.07;;;;;;;26.88;44.85;99680.38;4971730;28;20062;-24
2021/08/30 09:21:47;;;;;;;7.43;4.60;;;;;;;26.81;46.53;99675.47;4971708;28;20105;-24
2021/08/30 09:24:14;;;;;;;6.88;4.00;;;;;;;27.07;43.86;99677.91;4969959;28;20038;-24
2021/08/30 09:27:01;;;;;;;7.60;4.53;;;;;;;26.75;44.49;99639.31;4971296;28;20071;-23
2021/08/30 09:29:28;;;;;;;7.50;3.90;;;;;;;26.99;44.94;99646.78;4971679;28;20054;-24
2021/08/30 09:32:01;;;;;;;7.13;4.30;;;;;;;27.01;44.48;99658.19;4971290;28;20043;-23
2021/08/30 09:34:52;;;;;;;6.07;4.00;;;;;;;27.43;46.13;99674.44;4971385;28;20150;-24
2021/08/30 09:37:19;;;;;;;7.30;4.57;;;;;;;27.58;43.91;99664.75;4969254;28;20062;-24
2021/08/30 09:39:53;;;;;;;8.15;4.53;;;;;;;27.62;44.34;99649.25;4971374;28;20026;-24
2021/08/30 09:42:19;;;;;;;7.00;4.40;;;;;;;27.59;43.53;99644.44;4971599;28;20907;-24
2021/08/30 09:44:44;;;;;;;6.28;4.28;;;;;;;26.98;45.43;99658.84;4971590;28;20030;-24
2021/08/30 09:47:11;;;;;;;8.10;4.35;;;;;;;26.91;45.22;99657.78;4971324;28;20031;-24
2021/08/30 09:49:37;;;;;;;7.33;5.03;;;;;;;27.02;46.62;99642.56;4971322;28;20023;-23
2021/08/30 09:52:03;;;;;;;8.07;5.00;;;;;;;27.47;45.20;99660.06;4970926;28;20266;-24
2021/08/30 09:54:28;;;;;;;5.80;4.10;;;;;;;27.86;43.86;99664.03;4971189;28;20034;-24
2021/08/30 09:56:54;;;;;;;7.72;4.60;;;;;;;27.55;44.57;99649.00;4971190;28;20030;-24
2021/08/30 09:59:19;;;;;;;7.30;4.30;;;;;;;27.76;46.44;99653.53;4970222;28;20035;-24
2021/08/30 10:01:44;;;;;;;6.97;4.82;;;;;;;28.19;43.14;99654.84;4971778;28;20376;-24
2021/08/30 10:04:10;;;;;;;7.97;4.40;;;;;;;27.86;42.89;99658.56;4971127;28;20762;-24
2021/08/30 10:06:37;;;;;;;7.97;5.00;;;;;;;27.40;44.10;99636.81;4970003;28;20023;-24
2021/08/30 10:09:10;;;;;;;6.10;4.38;;;;;;;27.74;42.40;99653.88;4970986;28;20117;-23
2021/08/30 10:11:36;;;;;;;5.82;4.30;;;;;;;28.59;41.12;99645.84;4970405;28;20487;-24
2021/08/30 10:14:01;;;;;;;6.93;4.95;;;;;;;28.60;44.36;99653.69;4969678;28;20148;-24
2021/08/30 10:16:27;;;;;;;7.60;5.30;;;;;;;28.73;43.37;99656.38;4952974;28;20027;-23
2021/08/30 10:18:55;;;;;;;7.45;4.82;;;;;;;28.80;41.25;99638.16;4969693;28;20038;-24
2021/08/30 10:21:20;;;;;;;10.48;5.38;;;;;;;28.66;42.35;99656.97;4970891;28;20030;-23
2021/08/30 10:23:46;;;;;;;7.22;4.75;;;;;;;28.78;42.18;99659.66;4970519;28;20045;-24
2021/08/30 10:26:12;;;;;;;6.50;4.93;;;;;;;29.12;41.38;99629.97;4969687;28;20043;-24
2021/08/30 10:28:44;;;;;;;9.32;5.50;;;;;;;29.41;41.06;99652.66;4970606;28;20035;-24
2021/08/30 10:31:25;;;;;;;7.85;5.75;;;;;;;29.65;41.91;99657.94;4970955;28;20137;-24
2021/08/30 10:33:54;;;;;;;7.07;4.47;;;;;;;30.39;39.29;99654.44;4970601;28;20132;-24
2021/08/30 10:36:24;;;;;;;7.10;5.13;;;;;;;30.00;41.36;99657.16;4970092;28;20113;-24
2021/08/30 10:39:01;;;;;;;7.95;5.22;;;;;;;29.75;39.05;99645.63;4970631;28;20152;-24
2021/08/30 10:41:27;;;;;;;;;;;;;;;29.21;41.55;99649.03;4970881;28;20074;-24
2021/08/30 10:44:02;;;;;;;6.97;4.72;;;;;;;29.25;40.80;99649.91;4970219;28;19996;-24
2021/08/30 10:46:45;;;;;;;8.48;5.32;;;;;;;29.40;39.77;99651.03;4968951;28;20038;-24
2021/08/30 10:49:25;;;;;;;6.68;5.20;;;;;;;29.59;39.81;99642.09;4969118;28;20043;-24
2021/08/30 10:51:51;;;;;;;8.05;5.10;;;;;;;29.33;39.87;99635.19;4970367;28;20034;-24
2021/08/30 10:54:18;;;;;;;7.68;5.20;;;;;;;29.52;39.36;99634.44;4970016;28;20109;-23
2021/08/30 10:56:57;;;;;;;6.82;5.28;;;;;;;29.48;41.67;99641.03;4970122;28;20034;-24
2021/08/30 10:59:28;;;;;;;9.70;5.57;;;;;;;29.37;40.90;99629.78;4969981;28;20097;-24
2021/08/30 11:01:59;;;;;;;8.20;5.32;;;;;;;29.21;40.89;99635.28;4969968;28;20058;-24
2021/08/30 11:04:38;;;;;;;8.38;5.30;;;;;;;28.95;41.16;99635.78;4969998;28;20035;-24
2021/08/30 11:07:07;;;;;;;7.07;4.95;;;;;;;28.90;41.20;99653.31;4969646;28;20491;-24
2021/08/30 11:09:33;;;;;;;8.13;4.85;;;;;;;29.94;38.75;99639.34;4969908;28;20411;-24
2021/08/30 11:12:12;;;;;;;7.47;5.07;;;;;;;29.87;39.15;99641.16;4969684;28;20491;-24
2021/08/30 11:14:38;;;;;;;7.57;5.45;;;;;;;29.45;40.32;99642.53;4969875;28;20035;-24
2021/08/30 11:17:03;;;;;;;7.68;5.75;;;;;;;29.48;41.51;99644.56;4969802;28;20479;-24
2021/08/30 11:19:29;;;;;;;7.43;5.13;;;;;;;29.80;40.23;99637.09;4969414;28;20038;-24
2021/08/30 11:21:58;;;;;;;8.90;5.18;;;;;;;30.09;40.57;99647.91;4969971;28;20101;-24
2021/08/30 11:24:25;;;;;;;7.38;5.10;;;;;;;29.99;41.04;99644.56;4969078;28;20045;-25
2021/08/30 11:26:52;;;;;;;6.30;4.70;;;;;;;29.93;39.80;99634.22;4969331;28;21171;-24
2021/08/30 11:29:17;;;;;;;6.10;4.80;;;;;;;30.02;40.15;99632.84;4969709;28;20085;-24
2021/08/30 11:31:43;;;;;;;6.53;5.10;;;;;;;29.89;38.82;99620.38;4969488;28;20077;-23
2021/08/30 11:34:09;;;;;;;7.55;4.85;;;;;;;29.94;39.68;99633.84;4969465;28;20956;-24